createdAt,value
2018-05-26T00:02:02.469Z,14.23
2018-05-26T00:04:32.183Z,20.53
2018-05-26T00:07:01.256Z,12.67
2018-05-26T00:09:30.044Z,9.70
2018-05-26T00:11:58.961Z,22.73
2018-05-26T00:14:28.884Z,7.97
2018-05-26T00:16:58.420Z,13.73
2018-05-26T00:19:27.234Z,7.60
2018-05-26T00:21:56.022Z,14.30
2018-05-26T00:24:24.922Z,11.77
2018-05-26T00:26:54.852Z,9.20
2018-05-26T00:29:23.827Z,11.70
2018-05-26T00:31:52.202Z,9.07
2018-05-26T00:34:21.273Z,8.93
2018-05-26T00:36:49.870Z,11.90
2018-05-26T00:39:18.687Z,10.20
2018-05-26T00:41:47.666Z,13.80
2018-05-26T00:44:17.294Z,7.93
2018-05-26T00:46:47.539Z,8.57
2018-05-26T00:49:16.050Z,7.57
2018-05-26T00:51:44.878Z,8.93
2018-05-26T00:54:13.878Z,12.00
2018-05-26T00:56:44.109Z,7.23
2018-05-26T00:59:14.385Z,8.10
2018-05-26T01:01:43.108Z,35.47
2018-05-26T01:04:12.053Z,9.70
2018-05-26T01:06:42.925Z,7.90
2018-05-26T01:09:11.709Z,8.43
2018-05-26T01:11:42.392Z,12.07
2018-05-26T01:14:11.143Z,10.30
2018-05-26T01:16:40.466Z,9.47
2018-05-26T01:19:10.476Z,7.17
2018-05-26T01:21:39.300Z,6.90
2018-05-26T01:24:08.153Z,6.50
2018-05-26T01:26:37.032Z,17.80
2018-05-26T01:29:05.991Z,10.90
2018-05-26T01:31:35.507Z,10.90
2018-05-26T01:34:03.883Z,7.83
2018-05-26T01:36:32.292Z,7.60
2018-05-26T01:39:02.700Z,7.50
2018-05-26T01:41:31.080Z,14.03
2018-05-26T01:44:01.260Z,7.97
2018-05-26T01:46:30.228Z,7.10
2018-05-26T01:48:59.294Z,7.90
2018-05-26T01:51:27.863Z,11.10
2018-05-26T01:53:56.230Z,6.70
2018-05-26T01:56:24.690Z,7.43
2018-05-26T01:58:53.407Z,9.87
2018-05-26T02:01:22.195Z,10.87
2018-05-26T02:03:51.000Z,9.30
2018-05-26T02:06:19.906Z,7.40
2018-05-26T02:08:48.384Z,8.27
2018-05-26T02:11:18.327Z,6.57
2018-05-26T02:13:47.966Z,14.10
2018-05-26T02:16:17.813Z,14.97
2018-05-26T02:18:46.724Z,12.60
2018-05-26T02:21:15.104Z,9.23
2018-05-26T02:23:44.354Z,10.40
2018-05-26T02:26:12.793Z,20.70
2018-05-26T02:28:41.952Z,8.53
2018-05-26T02:31:10.911Z,20.23
2018-05-26T02:33:39.733Z,7.97
2018-05-26T02:36:08.663Z,9.87
2018-05-26T02:38:37.038Z,10.27
2018-05-26T02:41:06.177Z,30.43
2018-05-26T02:43:35.001Z,8.00
2018-05-26T02:46:05.259Z,9.00
2018-05-26T02:48:34.656Z,8.87
2018-05-26T02:51:03.062Z,15.57
2018-05-26T02:53:32.308Z,23.87
2018-05-26T02:56:00.967Z,8.53
2018-05-26T02:58:30.470Z,9.73
2018-05-26T03:00:59.508Z,7.63
2018-05-26T03:03:28.051Z,9.43
2018-05-26T03:06:03.027Z,11.07
2018-05-26T03:08:38.371Z,10.03
2018-05-26T03:11:12.776Z,8.53
2018-05-26T03:13:47.572Z,9.03
2018-05-26T03:16:27.164Z,8.00
2018-05-26T03:18:56.648Z,8.47
2018-05-26T03:21:25.358Z,7.60
2018-05-26T03:23:55.285Z,8.53
2018-05-26T03:26:24.646Z,8.77
2018-05-26T03:28:53.438Z,8.23
2018-05-26T03:31:23.066Z,12.80
2018-05-26T03:33:52.031Z,8.37
2018-05-26T03:36:21.931Z,10.93
2018-05-26T03:38:50.528Z,9.20
2018-05-26T03:41:19.917Z,8.40
2018-05-26T03:43:49.167Z,7.80
2018-05-26T03:46:17.876Z,7.07
2018-05-26T03:48:47.875Z,9.60
2018-05-26T03:51:16.500Z,9.73
2018-05-26T03:53:45.316Z,18.57
2018-05-26T03:56:31.974Z,8.63
2018-05-26T03:59:18.743Z,10.03
2018-05-26T04:01:47.908Z,8.73
2018-05-26T04:04:16.349Z,6.90
2018-05-26T04:06:45.848Z,7.50
2018-05-26T04:09:14.779Z,6.97
2018-05-26T04:11:44.132Z,7.27
2018-05-26T04:14:13.117Z,6.70
2018-05-26T04:16:43.231Z,7.03
2018-05-26T04:19:13.557Z,8.83
2018-05-26T04:21:42.055Z,6.20
2018-05-26T04:24:11.216Z,8.53
2018-05-26T04:26:40.551Z,6.30
2018-05-26T04:29:09.734Z,6.13
2018-05-26T04:31:40.060Z,6.43
2018-05-26T04:34:08.838Z,6.13
2018-05-26T04:36:38.657Z,9.13
2018-05-26T04:39:07.593Z,8.30
2018-05-26T04:41:36.435Z,5.10
2018-05-26T04:44:04.937Z,5.30
2018-05-26T04:46:35.038Z,5.40
2018-05-26T04:49:04.090Z,5.23
2018-05-26T04:51:32.567Z,5.00
2018-05-26T04:54:01.176Z,5.93
2018-05-26T04:56:29.902Z,4.20
2018-05-26T04:58:59.971Z,5.67
2018-05-26T05:01:29.199Z,5.17
2018-05-26T05:03:57.602Z,5.43
2018-05-26T05:06:27.440Z,4.60
2018-05-26T05:08:57.040Z,5.47
2018-05-26T05:11:27.514Z,13.73
2018-05-26T05:13:56.160Z,4.37
2018-05-26T05:16:25.002Z,9.83
2018-05-26T05:18:53.733Z,4.17
2018-05-26T05:21:22.276Z,4.50
2018-05-26T05:23:52.249Z,9.00
2018-05-26T05:26:20.797Z,4.30
2018-05-26T05:28:49.656Z,5.23
2018-05-26T05:31:18.868Z,4.40
2018-05-26T05:33:49.039Z,4.00
2018-05-26T05:36:17.640Z,4.83
2018-05-26T05:38:46.446Z,5.43
2018-05-26T05:41:16.093Z,7.73
2018-05-26T05:43:45.848Z,4.00
2018-05-26T05:46:14.806Z,4.90
2018-05-26T05:48:43.640Z,4.53
2018-05-26T05:51:13.728Z,4.63
2018-05-26T05:53:42.437Z,9.43
2018-05-26T05:56:11.807Z,4.77
2018-05-26T05:58:42.309Z,4.40
2018-05-26T06:01:11.172Z,4.23
2018-05-26T06:03:40.335Z,7.93
2018-05-26T06:06:09.048Z,4.30
2018-05-26T06:08:38.384Z,3.73
2018-05-26T06:11:07.604Z,3.23
2018-05-26T06:13:36.312Z,4.23
2018-05-26T06:16:05.137Z,4.30
2018-05-26T06:18:33.666Z,5.30
2018-05-26T06:21:02.660Z,3.93
2018-05-26T06:23:32.547Z,4.70
2018-05-26T06:26:02.363Z,5.47
2018-05-26T06:28:32.625Z,3.30
2018-05-26T06:31:01.113Z,6.60
2018-05-26T06:33:30.372Z,3.87
2018-05-26T06:36:00.088Z,4.37
2018-05-26T06:38:30.486Z,3.20
2018-05-26T06:41:01.074Z,4.70
2018-05-26T06:43:29.554Z,2.97
2018-05-26T06:45:58.164Z,12.13
2018-05-26T06:48:28.240Z,3.20
2018-05-26T06:50:57.193Z,2.90
2018-05-26T06:53:26.989Z,4.23
2018-05-26T06:55:55.565Z,2.30
2018-05-26T06:58:23.956Z,2.73
2018-05-26T07:00:52.671Z,2.30
2018-05-26T07:03:21.534Z,3.10
2018-05-26T07:05:51.417Z,2.30
2018-05-26T07:08:19.787Z,3.57
2018-05-26T07:10:49.109Z,4.50
2018-05-26T07:13:17.733Z,4.17
2018-05-26T07:15:46.145Z,1.87
2018-05-26T07:18:14.572Z,3.27
2018-05-26T07:20:43.810Z,4.33
2018-05-26T07:23:12.641Z,1.93
2018-05-26T07:25:41.041Z,5.70
2018-05-26T07:28:10.636Z,4.30
2018-05-26T07:30:39.222Z,2.47
2018-05-26T07:33:07.806Z,1.70
2018-05-26T07:35:37.296Z,9.23
2018-05-26T07:38:05.768Z,2.10
2018-05-26T07:40:35.146Z,2.83
2018-05-26T07:43:03.682Z,1.93
2018-05-26T07:45:32.864Z,2.30
2018-05-26T07:48:02.106Z,4.03
2018-05-26T07:50:31.285Z,1.33
2018-05-26T07:53:00.968Z,2.13
2018-05-26T07:55:29.157Z,2.30
2018-05-26T07:57:57.037Z,5.30
2018-05-26T08:00:25.140Z,3.23
2018-05-26T08:02:52.806Z,1.10
2018-05-26T08:05:20.520Z,1.10
2018-05-26T08:07:48.179Z,4.27
2018-05-26T08:10:15.848Z,4.30
2018-05-26T08:12:43.964Z,0.90
2018-05-26T08:15:11.670Z,2.70
2018-05-26T08:17:39.427Z,1.20
2018-05-26T08:20:07.117Z,0.90
2018-05-26T08:22:35.245Z,1.97
2018-05-26T08:25:02.999Z,0.87
2018-05-26T08:27:30.700Z,1.83
2018-05-26T08:29:58.364Z,2.35
2018-05-26T08:32:26.478Z,0.90
2018-05-26T08:34:54.193Z,1.00
2018-05-26T08:37:21.880Z,2.40
2018-05-26T08:39:49.573Z,2.93
2018-05-26T08:42:17.245Z,2.40
2018-05-26T08:44:44.905Z,2.90
2018-05-26T08:47:12.599Z,7.70
2018-05-26T08:49:40.273Z,1.50
2018-05-26T08:52:07.952Z,1.00
2018-05-26T08:54:36.014Z,1.20
2018-05-26T08:57:04.118Z,0.80
2018-05-26T08:59:31.784Z,2.47
2018-05-26T09:01:59.495Z,1.53
2018-05-26T09:04:27.155Z,2.00
2018-05-26T09:06:54.835Z,2.73
2018-05-26T09:09:22.969Z,1.98
2018-05-26T09:11:50.705Z,0.70
2018-05-26T09:14:18.375Z,7.07
2018-05-26T09:16:46.075Z,4.53
2018-05-26T09:19:13.748Z,7.03
2018-05-26T09:21:41.432Z,0.90
2018-05-26T09:24:09.505Z,1.08
2018-05-26T09:26:37.627Z,0.70
2018-05-26T09:29:05.399Z,2.85
2018-05-26T09:31:33.091Z,1.42
2018-05-26T09:34:00.812Z,2.10
2018-05-26T09:36:28.499Z,0.90
2018-05-26T09:38:56.157Z,5.45
2018-05-26T09:41:23.844Z,4.22
2018-05-26T09:43:51.522Z,2.80
2018-05-26T09:46:19.602Z,1.20
2018-05-26T09:48:47.282Z,7.57
2018-05-26T09:51:14.967Z,0.70
2018-05-26T09:53:42.633Z,7.30
2018-05-26T09:56:10.320Z,2.35
2018-05-26T09:58:37.992Z,0.65
2018-05-26T10:01:05.684Z,0.70
2018-05-26T10:03:33.351Z,2.47
2018-05-26T10:06:01.043Z,0.70
2018-05-26T10:08:28.724Z,0.80
2018-05-26T10:10:56.401Z,1.70
2018-05-26T10:13:24.134Z,4.57
2018-05-26T10:15:51.788Z,1.10
2018-05-26T10:18:19.457Z,1.10
2018-05-26T10:20:47.152Z,3.70
2018-05-26T10:23:14.846Z,2.10
2018-05-26T10:25:42.567Z,0.83
2018-05-26T10:28:10.385Z,2.53
2018-05-26T10:30:38.160Z,1.20
2018-05-26T10:33:05.821Z,1.80
2018-05-26T10:35:33.531Z,1.13
2018-05-26T10:38:01.189Z,1.20
2018-05-26T10:40:28.861Z,1.73
2018-05-26T10:42:56.612Z,4.30
2018-05-26T10:45:36.170Z,4.73
2018-05-26T10:48:04.257Z,2.30
2018-05-26T10:50:31.962Z,1.10
2018-05-26T10:52:59.658Z,3.90
2018-05-26T10:55:27.339Z,1.77
2018-05-26T10:57:55.434Z,1.87
2018-05-26T11:00:23.118Z,2.93
2018-05-26T11:02:50.779Z,2.03
2018-05-26T11:05:18.478Z,2.33
2018-05-26T11:07:46.136Z,2.93
2018-05-26T11:10:13.837Z,2.00
2018-05-26T11:12:41.511Z,5.03
2018-05-26T11:15:09.210Z,2.30
2018-05-26T11:17:36.900Z,2.00
2018-05-26T11:20:04.540Z,6.13
2018-05-26T11:22:32.260Z,3.80
2018-05-26T11:25:00.345Z,4.90
2018-05-26T11:27:28.007Z,2.63
2018-05-26T11:29:55.667Z,3.33
2018-05-26T11:32:23.432Z,8.60
2018-05-26T11:34:51.094Z,3.77
2018-05-26T11:37:18.839Z,4.83
2018-05-26T11:39:46.456Z,3.33
2018-05-26T11:42:14.156Z,3.67
2018-05-26T11:44:42.233Z,13.27
2018-05-26T11:47:10.298Z,9.37
2018-05-26T11:49:37.987Z,3.30
2018-05-26T11:52:05.631Z,3.30
2018-05-26T11:54:33.664Z,4.30
2018-05-26T11:57:01.325Z,3.93
2018-05-26T11:59:29.027Z,8.40
2018-05-26T12:01:57.144Z,8.93
2018-05-26T12:04:24.759Z,2.87
2018-05-26T12:06:52.423Z,12.53
2018-05-26T12:09:20.493Z,3.83
2018-05-26T12:11:48.534Z,5.87
2018-05-26T12:14:16.193Z,3.93
2018-05-26T12:16:43.883Z,6.77
2018-05-26T12:19:11.911Z,3.00
2018-05-26T12:21:39.616Z,3.77
2018-05-26T12:24:07.692Z,3.77
2018-05-26T12:26:35.745Z,3.50
2018-05-26T12:29:03.402Z,5.70
2018-05-26T12:31:31.069Z,2.60
2018-05-26T12:33:58.756Z,3.60
2018-05-26T12:36:26.826Z,3.80
2018-05-26T12:38:54.880Z,6.33
2018-05-26T12:41:22.561Z,4.00
2018-05-26T12:43:50.597Z,5.17
2018-05-26T12:46:18.284Z,12.43
2018-05-26T12:48:45.925Z,8.83
2018-05-26T12:51:13.966Z,3.37
2018-05-26T12:53:42.499Z,10.77
2018-05-26T12:56:10.282Z,3.30
2018-05-26T12:58:38.365Z,7.63
2018-05-26T13:01:06.149Z,5.20
2018-05-26T13:03:33.783Z,3.30
2018-05-26T13:06:01.434Z,5.47
2018-05-26T13:08:29.521Z,2.87
2018-05-26T13:10:57.175Z,3.43
2018-05-26T13:13:24.828Z,3.60
2018-05-26T13:15:52.490Z,7.33
2018-05-26T13:18:20.543Z,3.60
2018-05-26T13:20:48.188Z,4.43
2018-05-26T13:23:15.823Z,4.00
2018-05-26T13:25:43.487Z,6.17
2018-05-26T13:28:11.120Z,4.17
2018-05-26T13:30:38.772Z,5.13
2018-05-26T13:33:06.813Z,9.10
2018-05-26T13:35:34.459Z,5.40
2018-05-26T13:38:02.103Z,8.67
2018-05-26T13:40:29.744Z,4.00
2018-05-26T13:42:57.373Z,5.03
2018-05-26T13:45:26.641Z,9.03
2018-05-26T13:47:54.296Z,5.40
2018-05-26T13:50:21.959Z,7.23
2018-05-26T13:52:49.615Z,2.57
2018-05-26T13:55:17.278Z,2.33
2018-05-26T13:57:44.905Z,12.80
2018-05-26T14:00:12.942Z,6.83
2018-05-26T14:02:40.592Z,9.63
2018-05-26T14:05:08.261Z,15.00
2018-05-26T14:07:35.926Z,6.27
2018-05-26T14:10:03.607Z,5.70
2018-05-26T14:12:31.653Z,4.50
2018-05-26T14:14:59.343Z,3.53
2018-05-26T14:17:27.386Z,6.20
2018-05-26T14:19:55.057Z,8.03
2018-05-26T14:22:22.733Z,15.00
2018-05-26T14:24:50.436Z,6.70
2018-05-26T14:27:18.080Z,4.23
2018-05-26T14:29:46.115Z,5.53
2018-05-26T14:32:13.795Z,3.77
2018-05-26T14:34:41.836Z,6.03
2018-05-26T14:37:09.480Z,5.40
2018-05-26T14:39:37.129Z,3.53
2018-05-26T14:42:04.901Z,4.20
2018-05-26T14:44:32.547Z,3.20
2018-05-26T14:47:00.196Z,10.33
2018-05-26T14:49:27.893Z,4.50
2018-05-26T14:51:55.626Z,3.43
2018-05-26T14:54:23.254Z,3.50
2018-05-26T14:56:50.920Z,3.80
2018-05-26T14:59:18.969Z,6.70
2018-05-26T15:01:46.657Z,4.13
2018-05-26T15:04:14.296Z,5.03
2018-05-26T15:06:41.945Z,3.93
2018-05-26T15:09:09.636Z,9.47
2018-05-26T15:11:37.285Z,3.60
2018-05-26T15:14:05.109Z,6.30
2018-05-26T15:16:32.876Z,6.90
2018-05-26T15:19:00.628Z,23.60
2018-05-26T15:21:28.379Z,3.67
2018-05-26T15:23:56.422Z,6.03
2018-05-26T15:26:24.078Z,8.87
2018-05-26T15:28:51.740Z,4.40
2018-05-26T15:31:19.432Z,6.53
2018-05-26T15:33:47.487Z,6.03
2018-05-26T15:36:15.142Z,5.83
2018-05-26T15:38:42.829Z,3.40
2018-05-26T15:41:10.914Z,5.10
2018-05-26T15:43:38.567Z,3.70
2018-05-26T15:46:06.612Z,13.57
2018-05-26T15:48:34.298Z,5.20
2018-05-26T15:51:02.371Z,4.30
2018-05-26T15:53:30.471Z,5.57
2018-05-26T15:55:58.121Z,7.70
2018-05-26T15:58:25.979Z,4.23
2018-05-26T16:00:54.015Z,4.53
2018-05-26T16:03:21.702Z,12.60
2018-05-26T16:05:49.752Z,10.73
2018-05-26T16:08:17.396Z,9.80
2018-05-26T16:10:45.117Z,7.77
2018-05-26T16:13:12.868Z,3.67
2018-05-26T16:15:41.018Z,3.07
2018-05-26T16:18:08.676Z,4.50
2018-05-26T16:20:36.342Z,8.27
2018-05-26T16:23:03.988Z,6.83
2018-05-26T16:25:31.704Z,4.77
2018-05-26T16:27:59.484Z,4.03
2018-05-26T16:30:27.213Z,4.37
2018-05-26T16:32:55.289Z,3.90
2018-05-26T16:35:22.955Z,3.83
2018-05-26T16:37:50.614Z,4.20
2018-05-26T16:40:18.659Z,5.00
2018-05-26T16:42:46.328Z,4.10
2018-05-26T16:45:14.062Z,4.23
2018-05-26T16:47:41.680Z,4.03
2018-05-26T16:50:09.330Z,3.53
2018-05-26T16:52:37.409Z,3.30
2018-05-26T16:55:05.515Z,5.13
2018-05-26T16:57:33.170Z,3.87
2018-05-26T17:00:00.912Z,3.73
2018-05-26T17:02:28.706Z,3.70
2018-05-26T17:04:56.403Z,4.10
2018-05-26T17:07:24.050Z,4.03
2018-05-26T17:09:51.685Z,4.10
2018-05-26T17:12:19.406Z,4.47
2018-05-26T17:14:47.452Z,5.93
2018-05-26T17:17:15.149Z,7.03
2018-05-26T17:19:43.189Z,4.37
2018-05-26T17:22:10.909Z,4.90
2018-05-26T17:24:38.547Z,11.13
2018-05-26T17:27:06.574Z,8.50
2018-05-26T17:29:34.223Z,5.63
2018-05-26T17:32:01.890Z,4.50
2018-05-26T17:34:29.597Z,6.77
2018-05-26T17:36:57.649Z,10.13
2018-05-26T17:39:25.333Z,5.83
2018-05-26T17:41:53.380Z,5.50
2018-05-26T17:44:21.045Z,4.10
2018-05-26T17:46:48.723Z,3.70
2018-05-26T17:49:16.767Z,4.40
2018-05-26T17:51:44.419Z,3.93
2018-05-26T17:54:12.081Z,7.13
2018-05-26T17:56:39.777Z,4.40
2018-05-26T17:59:07.413Z,3.90
2018-05-26T18:01:35.066Z,4.50
2018-05-26T18:04:02.699Z,16.13
2018-05-26T18:06:30.438Z,4.50
2018-05-26T18:08:58.474Z,6.53
2018-05-26T18:11:26.130Z,4.57
2018-05-26T18:13:53.819Z,8.03
2018-05-26T18:16:21.467Z,9.53
2018-05-26T18:18:49.117Z,4.90
2018-05-26T18:21:16.797Z,4.77
2018-05-26T18:23:44.485Z,4.43
2018-05-26T18:26:12.644Z,4.87
2018-05-26T18:28:40.306Z,4.40
2018-05-26T18:31:08.357Z,8.80
2018-05-26T18:33:36.004Z,4.90
2018-05-26T18:36:03.662Z,4.87
2018-05-26T18:38:31.302Z,4.13
2018-05-26T18:40:58.976Z,10.43
2018-05-26T18:43:26.697Z,5.30
2018-05-26T18:45:54.777Z,6.50
2018-05-26T18:48:22.449Z,4.87
2018-05-26T18:50:50.124Z,4.83
2018-05-26T18:53:17.777Z,7.83
2018-05-26T18:55:45.581Z,5.53
2018-05-26T18:58:13.241Z,4.67
2018-05-26T19:00:40.923Z,5.43
2018-05-26T19:03:08.565Z,4.20
2018-05-26T19:05:36.269Z,5.13
2018-05-26T19:08:04.477Z,5.90
2018-05-26T19:10:32.198Z,6.17
2018-05-26T19:12:59.833Z,5.37
2018-05-26T19:15:27.493Z,6.13
2018-05-26T19:17:55.126Z,5.23
2018-05-26T19:20:22.878Z,6.00
2018-05-26T19:22:50.659Z,8.47
2018-05-26T19:25:18.357Z,12.77
2018-05-26T19:27:46.011Z,6.80
2018-05-26T19:30:13.708Z,10.90
2018-05-26T19:32:41.772Z,11.43
2018-05-26T19:35:09.442Z,7.23
2018-05-26T19:37:37.481Z,7.10
2018-05-26T19:40:05.245Z,7.30
2018-05-26T19:42:32.900Z,7.30
2018-05-26T19:45:00.657Z,7.63
2018-05-26T19:47:28.353Z,7.33
2018-05-26T19:49:56.085Z,8.17
2018-05-26T19:52:23.676Z,9.17
2018-05-26T19:54:51.314Z,8.07
2018-05-26T19:57:19.030Z,11.00
2018-05-26T19:59:46.666Z,8.73
2018-05-26T20:02:14.722Z,8.30
2018-05-26T20:04:43.018Z,8.33
2018-05-26T20:07:11.373Z,7.87
2018-05-26T20:09:39.148Z,13.67
2018-05-26T20:12:07.019Z,8.80
2018-05-26T20:14:35.020Z,11.40
2018-05-26T20:17:03.041Z,10.40
2018-05-26T20:19:30.759Z,10.33
2018-05-26T20:21:59.868Z,9.63
2018-05-26T20:24:29.028Z,13.87
2018-05-26T20:26:58.205Z,15.10
2018-05-26T20:29:27.158Z,12.73
2018-05-26T20:31:54.831Z,10.87
2018-05-26T20:34:22.976Z,8.60
2018-05-26T20:36:50.886Z,10.00
2018-05-26T20:39:18.870Z,12.67
2018-05-26T20:41:46.824Z,9.97
2018-05-26T20:44:15.936Z,9.37
2018-05-26T20:46:43.785Z,14.80
2018-05-26T20:49:11.528Z,11.07
2018-05-26T20:51:39.965Z,10.47
2018-05-26T20:54:08.123Z,10.17
2018-05-26T20:56:36.128Z,16.03
2018-05-26T20:59:05.273Z,10.87
2018-05-26T21:01:33.520Z,10.03
2018-05-26T21:04:01.955Z,10.57
2018-05-26T21:06:30.143Z,17.20
2018-05-26T21:08:59.255Z,9.63
2018-05-26T21:11:27.257Z,9.70
2018-05-26T21:13:55.179Z,10.57
2018-05-26T21:16:24.145Z,11.23
2018-05-26T21:18:52.102Z,10.63
2018-05-26T21:21:19.861Z,10.20
2018-05-26T21:23:48.913Z,10.63
2018-05-26T21:26:16.742Z,11.00
2018-05-26T21:28:45.508Z,11.27
2018-05-26T21:31:13.751Z,11.17
2018-05-26T21:33:42.740Z,19.40
2018-05-26T21:36:10.759Z,11.23
2018-05-26T21:38:38.710Z,12.47
2018-05-26T21:41:06.922Z,12.63
2018-05-26T21:43:35.683Z,13.53
2018-05-26T21:46:03.723Z,16.93
2018-05-26T21:48:31.847Z,11.93
2018-05-26T21:50:59.522Z,13.00
2018-05-26T21:53:28.843Z,14.00
2018-05-26T21:55:57.392Z,18.47
2018-05-26T21:58:25.297Z,13.27
2018-05-26T22:00:54.686Z,15.07
2018-05-26T22:03:22.793Z,14.97
2018-05-26T22:05:51.990Z,15.53
2018-05-26T22:08:20.291Z,17.77
2018-05-26T22:10:49.812Z,22.53
2018-05-26T22:13:17.659Z,15.50
2018-05-26T22:15:45.482Z,20.13
2018-05-26T22:18:13.526Z,14.70
2018-05-26T22:20:41.622Z,15.97
2018-05-26T22:23:10.536Z,16.17
2018-05-26T22:25:38.546Z,16.57
2018-05-26T22:28:06.640Z,15.47
2018-05-26T22:30:35.283Z,22.97
2018-05-26T22:33:02.990Z,19.37
2018-05-26T22:35:31.925Z,15.23
2018-05-26T22:37:59.588Z,14.87
2018-05-26T22:40:28.028Z,18.90
2018-05-26T22:42:57.399Z,15.40
2018-05-26T22:45:26.109Z,17.53
2018-05-26T22:47:54.219Z,21.03
2018-05-26T22:50:22.119Z,21.63
2018-05-26T22:52:50.205Z,15.80
2018-05-26T22:55:18.487Z,17.37
2018-05-26T22:57:47.089Z,16.47
2018-05-26T23:00:15.424Z,15.87
2018-05-26T23:02:43.213Z,20.23
2018-05-26T23:05:11.824Z,23.30
2018-05-26T23:07:39.981Z,18.13
2018-05-26T23:10:08.805Z,23.47
2018-05-26T23:12:37.027Z,15.77
2018-05-26T23:15:04.860Z,30.50
2018-05-26T23:17:33.895Z,18.87
2018-05-26T23:20:01.603Z,20.23
2018-05-26T23:22:30.477Z,20.10
2018-05-26T23:24:58.808Z,15.63
2018-05-26T23:27:27.871Z,20.63
2018-05-26T23:29:55.883Z,16.63
2018-05-26T23:32:23.588Z,26.13
2018-05-26T23:34:51.711Z,17.13
2018-05-26T23:37:19.912Z,16.97
2018-05-26T23:39:48.188Z,17.50
2018-05-26T23:42:15.870Z,17.27
2018-05-26T23:44:44.298Z,17.40
2018-05-26T23:47:13.459Z,15.93
2018-05-26T23:49:41.711Z,16.53
2018-05-26T23:52:10.335Z,20.83
2018-05-26T23:54:38.335Z,24.73
2018-05-26T23:57:06.855Z,15.90
2018-05-26T23:59:35.283Z,14.53
